RJOS(METAR)
10/16 18:00
METAR RJOS 160900Z 02007KT 9999 FEW030 19/10 Q1023 RMK 1CU030 A3021=
戻る
トップページへ戻る
IMOC Co,.Ltd.